»·PEaware :: N6262K KTOA-KPAO

N6262K :: KTOA-KPAO

FLIGHT INFORMATION

Flight Status: Arrived
Operator: Privately registered:
United States
More flights under this callsign
Pilot: Judson K. (15650)
Aircraft: SOCATA TBM-900
(TBM9)
More flights by this aircraft type
Origin: KTOA Zamperini
United States
Destination: KPAO Palo Alto Of Santa Clara Co
United States
More flights between these airports :: More routes between these airports
Route: +LAX170 LIMBO V64 WILMA LAX V299 VTU V485 SJC
File this flight plan on PilotEdge
Remarks:
Altitude:
(Current/Filed)
24,000ft
Speed:
(Current/Filed)
210kts
Departed: 07-Nov-19 04:50 PM
Arrived: 07-Nov-19 06:16 PM
Distance/Time
Traveled:
286nm/1:25
Distance/Time
To Go:
Arrived

Flight Plot

Page will automatically refresh every two minutes.

Flight plan parsing failed; only flown route is shown


Map Options




Map Legend


Flown Route
Filed Route
Departure Airport
Arrival Airport
Navaid (VOR, NDB)
Fix

Horizontal Profiles

Position Reports

Time Latitude Longitude Heading Altitude Ground
Speed
07-Nov-19 16:14 33.803347 -118.344051 39 106ft 0kts
07-Nov-19 16:15 33.803347 -118.344051 39 106ft 0kts
07-Nov-19 16:16 33.803347 -118.344052 39 106ft 0kts
07-Nov-19 16:17 33.803347 -118.344052 39 106ft 0kts
07-Nov-19 16:18 33.803347 -118.344052 39 106ft 0kts
07-Nov-19 16:19 33.803347 -118.344052 39 106ft 0kts
07-Nov-19 16:20 33.803347 -118.344052 39 106ft 0kts
07-Nov-19 16:21 33.803347 -118.344052 39 106ft 0kts
07-Nov-19 16:22 33.803347 -118.344052 39 106ft 0kts
07-Nov-19 16:23 33.803347 -118.344052 39 106ft 0kts
07-Nov-19 16:24 33.803347 -118.344052 39 106ft 0kts
07-Nov-19 16:25 33.803347 -118.344052 39 106ft 0kts
07-Nov-19 16:26 33.803347 -118.344052 39 106ft 0kts
07-Nov-19 16:27 33.803347 -118.344052 39 106ft 0kts
07-Nov-19 16:28 33.803347 -118.344052 39 106ft 0kts
07-Nov-19 16:29 33.803347 -118.344052 39 106ft 0kts
07-Nov-19 16:30 33.803347 -118.344052 39 106ft 0kts
07-Nov-19 16:31 33.803347 -118.344052 39 106ft 0kts
07-Nov-19 16:32 33.803347 -118.344052 39 106ft 0kts
07-Nov-19 16:33 33.803347 -118.344052 39 106ft 0kts
07-Nov-19 16:34 33.803347 -118.344051 39 106ft 0kts
07-Nov-19 16:35 33.803347 -118.344051 39 106ft 0kts
07-Nov-19 16:36 33.803347 -118.344051 39 106ft 0kts
07-Nov-19 16:37 33.803347 -118.344051 39 106ft 0kts
07-Nov-19 16:38 33.803347 -118.344051 39 106ft 0kts
07-Nov-19 16:39 33.803347 -118.344051 39 106ft 0kts
07-Nov-19 16:40 33.803347 -118.344051 39 106ft 0kts
07-Nov-19 16:41 33.803347 -118.344051 39 106ft 0kts
07-Nov-19 16:42 33.802962 -118.343135 132 106ft 6kts
07-Nov-19 16:43 33.802714 -118.342472 37 106ft 3kts
07-Nov-19 16:44 33.801569 -118.339861 128 106ft 19kts
07-Nov-19 16:45 33.798321 -118.334025 35 106ft 14kts
07-Nov-19 16:46 33.799099 -118.333297 36 106ft 0kts
07-Nov-19 16:47 33.799099 -118.333297 36 106ft 0kts
07-Nov-19 16:48 33.799099 -118.333297 36 106ft 0kts
07-Nov-19 16:49 33.800238 -118.333906 309 106ft 48kts
07-Nov-19 16:50 33.818428 -118.363469 305 1127ft 126kts
07-Nov-19 16:51 33.838768 -118.397780 306 2713ft 125kts
07-Nov-19 16:52 33.859659 -118.434733 307 3730ft 147kts
07-Nov-19 16:53 33.838409 -118.452519 162 3744ft 141kts
07-Nov-19 16:54 33.797652 -118.449990 200 5855ft 151kts
07-Nov-19 16:55 33.762081 -118.439202 93 7929ft 139kts
07-Nov-19 16:56 33.763401 -118.393398 83 9828ft 139kts
07-Nov-19 16:57 33.765996 -118.346834 84 11576ft 141kts
07-Nov-19 16:58 33.768811 -118.298971 84 13282ft 148kts
07-Nov-19 16:59 33.786244 -118.264011 341 15162ft 153kts
07-Nov-19 17:00 33.815280 -118.303689 318 16904ft 160kts
07-Nov-19 17:01 33.847629 -118.340404 321 18546ft 161kts
07-Nov-19 17:02 33.881156 -118.376475 321 20046ft 163kts
07-Nov-19 17:03 33.915247 -118.412888 320 21415ft 166kts
07-Nov-19 17:04 33.937908 -118.447681 294 22421ft 171kts
07-Nov-19 17:05 33.955239 -118.501242 294 23597ft 173kts
07-Nov-19 17:06 33.973506 -118.558242 294 24135ft 204kts
07-Nov-19 17:07 33.995767 -118.628088 293 24122ft 237kts
07-Nov-19 17:08 34.020202 -118.705208 292 24116ft 253kts
07-Nov-19 17:09 34.044660 -118.785703 289 24116ft 256kts
07-Nov-19 17:10 34.066614 -118.867825 290 24114ft 259kts
07-Nov-19 17:11 34.088900 -118.951219 291 24123ft 263kts
07-Nov-19 17:12 34.111720 -119.036664 291 24126ft 271kts
07-Nov-19 17:13 34.167925 -119.092964 329 24128ft 268kts
07-Nov-19 17:14 34.229979 -119.144139 329 24125ft 271kts
07-Nov-19 17:15 34.292283 -119.195730 329 24126ft 272kts
07-Nov-19 17:16 34.355037 -119.247533 329 24127ft 273kts
07-Nov-19 17:17 34.417658 -119.299448 329 24129ft 273kts
07-Nov-19 17:18 34.480520 -119.351664 329 24127ft 273kts
07-Nov-19 17:19 34.543234 -119.403840 329 24125ft 273kts
07-Nov-19 17:20 34.606075 -119.456230 329 24123ft 273kts
07-Nov-19 17:21 34.668676 -119.508506 329 24121ft 274kts
07-Nov-19 17:22 34.731575 -119.561144 329 24121ft 274kts
07-Nov-19 17:23 34.794300 -119.613732 329 24123ft 274kts
07-Nov-19 17:24 34.857071 -119.666451 328 24125ft 273kts
07-Nov-19 17:25 34.919539 -119.719052 329 24129ft 273kts
07-Nov-19 17:26 34.982520 -119.772153 330 24134ft 276kts
07-Nov-19 17:27 35.046099 -119.825845 331 24135ft 281kts
07-Nov-19 17:28 35.111130 -119.879166 334 24142ft 282kts
07-Nov-19 17:29 35.178173 -119.929593 334 24147ft 284kts
07-Nov-19 17:30 35.245679 -119.980496 334 24153ft 284kts
07-Nov-19 17:31 35.312875 -120.031264 334 24155ft 285kts
07-Nov-19 17:32 35.380541 -120.082493 334 24151ft 285kts
07-Nov-19 17:33 35.447950 -120.133625 334 24140ft 286kts
07-Nov-19 17:34 35.515733 -120.185147 334 24130ft 286kts
07-Nov-19 17:35 35.583316 -120.236620 334 24129ft 285kts
07-Nov-19 17:36 35.650786 -120.288108 334 24130ft 285kts
07-Nov-19 17:37 35.718275 -120.339722 334 24130ft 285kts
07-Nov-19 17:38 35.785656 -120.391355 334 24131ft 286kts
07-Nov-19 17:39 35.853307 -120.443302 334 24131ft 286kts
07-Nov-19 17:40 35.920729 -120.495178 334 24131ft 286kts
07-Nov-19 17:41 35.988389 -120.547345 334 24132ft 286kts
07-Nov-19 17:42 36.055802 -120.599427 334 24132ft 286kts
07-Nov-19 17:43 36.123397 -120.651759 333 24130ft 281kts
07-Nov-19 17:44 36.186380 -120.709241 327 23439ft 281kts
07-Nov-19 17:45 36.247932 -120.768693 326 22775ft 279kts
07-Nov-19 17:46 36.308439 -120.827243 326 21989ft 273kts
07-Nov-19 17:47 36.368372 -120.885349 325 20830ft 270kts
07-Nov-19 17:48 36.426438 -120.941797 325 20136ft 252kts
07-Nov-19 17:49 36.480971 -120.994846 325 19413ft 245kts
07-Nov-19 17:50 36.534114 -121.046665 324 18195ft 240kts
07-Nov-19 17:51 36.586156 -121.097508 323 17067ft 234kts
07-Nov-19 17:52 36.636717 -121.146992 323 15997ft 228kts
07-Nov-19 17:54 36.685782 -121.195091 323 14983ft 222kts
07-Nov-19 17:55 36.733915 -121.242356 322 14007ft 217kts
07-Nov-19 17:56 36.780744 -121.288415 322 13082ft 212kts
07-Nov-19 17:57 36.826774 -121.333760 322 12196ft 208kts
07-Nov-19 17:58 36.871805 -121.378191 322 11328ft 205kts
07-Nov-19 17:59 36.916378 -121.422223 321 10494ft 203kts
07-Nov-19 18:00 36.958620 -121.468918 317 9714ft 201kts
07-Nov-19 18:01 36.999104 -121.516303 314 8860ft 192kts
07-Nov-19 18:02 37.036306 -121.563874 315 7844ft 187kts
07-Nov-19 18:03 37.072354 -121.610215 315 6847ft 183kts
07-Nov-19 18:04 37.107555 -121.655596 314 5878ft 180kts
07-Nov-19 18:05 37.142373 -121.700563 313 4999ft 175kts
07-Nov-19 18:06 37.180414 -121.749734 313 4720ft 202kts
07-Nov-19 18:07 37.219954 -121.800956 314 3191ft 203kts
07-Nov-19 18:08 37.255127 -121.846587 314 2943ft 159kts
07-Nov-19 18:09 37.286536 -121.887365 314 3004ft 197kts
07-Nov-19 18:10 37.323617 -121.935593 314 2273ft 191kts
07-Nov-19 18:11 37.362417 -121.986120 314 1975ft 222kts
07-Nov-19 18:11 37.394867 -122.028488 314 1756ft 178kts
07-Nov-19 18:13 37.427955 -122.076219 310 1074ft 120kts
07-Nov-19 18:14 37.444670 -122.098493 321 441ft 74kts
07-Nov-19 18:14 37.457907 -122.111883 321 36ft 72kts
07-Nov-19 18:15 37.462852 -122.117391 140 5ft 0kts
07-Nov-19 18:17 37.460575 -122.115115 141 5ft 15kts
07-Nov-19 18:17 37.457596 -122.112684 205 5ft 12kts
07-Nov-19 18:18 37.456698 -122.114367 35 5ft 0kts
07-Nov-19 18:20 37.456698 -122.114368 35 5ft 0kts
07-Nov-19 18:20 37.456698 -122.114368 35 5ft 0kts
07-Nov-19 18:21 37.456698 -122.114367 35 5ft 0kts
07-Nov-19 18:22 37.456698 -122.114367 35 5ft 0kts
07-Nov-19 18:23 37.456698 -122.114367 35 5ft 0kts
07-Nov-19 18:24 37.456698 -122.114367 35 5ft 0kts
07-Nov-19 18:25 37.456698 -122.114367 35 5ft 0kts
07-Nov-19 18:26 37.456698 -122.114367 35 5ft 0kts
07-Nov-19 18:27 37.456698 -122.114367 35 5ft 0kts

Navigation Log

Ident Type
Flight plan parsing failed, navigation log unavailable